Pagrindinis puslapis
METAR-TAF:

METAR-TAF

Oro uostai :

Taifas, Saudo Arabija

platuma: 21-29N, ilguma: 040-33E, Aukštis: 1478 m

Dabartinis oras

Ataskaita buvo paskelbta 26 minutes, ne 07:00 UTC
Vėjas 18 kt iš Pietų/Pietryčių
Temperatūra 25°C
Drėgmė 10%
Slėgis 1024 hPa
Matomumas 10 km arba daugiau
nėra debesų žemiau 1500 m ir nėra kamuolinių lietaus debesų

METAR: OETF 210700Z 16018KT CAVOK 25/M09 Q1024 NOSIG

Laikas: 10:26 (07:26 UTC)

Prognozė

Ataskaita buvo paskelbta 2 valandos ir 26 minutes, ne 05:00 UTC
Prognozė galioja nuo 21 metu 06 UTC su 21 metu 24 UTC
Vėjas 10 kt iš Rytų/Pietryčių su gūsio iki 20 kt
Matomumas: 7000 m
Tapsmas
nuo 21 metu 18 UTC su 21 metu 20 UTC
Vėjas 10 kt iš Pietų

TAF: OETF 210500Z 2106/2124 12010G20KT 7000 NSC BECMG 2118/2120 18010KT

Orai ataskaitas ir orų prognozės (METAR, TAF).

turimą stotys yra geltonos ir raudonos taškus žemėlapyje.

Perkelti pele per norėdami pamatyti stoties vardą.

Tada spustelėkite, norėdami matyti oro stebėjimo ir prognozės.

Norėdami pakeisti žemėlapį: spustelėkite ant žalios mygtukų su juodo kryžiaus žemyn,; žalią mygtuką su brūkšneliu, jei norite nutolinti; arba žalių rodyklių gretimoms žemėlapius.


METAR-TAF: